createdAt,value
2023-02-14T00:01:31.710Z,62
2023-02-14T00:04:01.741Z,58
2023-02-14T00:06:32.875Z,76
2023-02-14T00:09:03.039Z,81
2023-02-14T00:11:33.284Z,82
2023-02-14T00:14:03.372Z,100
2023-02-14T00:16:33.624Z,92
2023-02-14T00:19:03.831Z,96
2023-02-14T00:21:43.014Z,98
2023-02-14T00:24:12.808Z,102
2023-02-14T00:26:42.860Z,97
2023-02-14T00:29:13.027Z,108
2023-02-14T00:31:42.983Z,107
2023-02-14T00:34:16.481Z,106
2023-02-14T00:36:45.832Z,104
2023-02-14T00:39:16.875Z,100
2023-02-14T00:41:46.847Z,104
2023-02-14T00:44:16.922Z,102
2023-02-14T00:46:46.646Z,101
2023-02-14T00:49:22.814Z,96
2023-02-14T00:51:52.364Z,92
2023-02-14T00:54:22.473Z,100
2023-02-14T00:56:52.545Z,96
2023-02-14T00:59:22.573Z,96
2023-02-14T01:01:52.755Z,102
2023-02-14T01:04:22.695Z,96
2023-02-14T01:06:56.544Z,92
2023-02-14T01:09:26.740Z,91
2023-02-14T01:11:56.680Z,69
2023-02-14T01:14:26.863Z,68
2023-02-14T01:16:56.843Z,56
2023-02-14T01:19:27.045Z,58
2023-02-14T01:21:57.193Z,60
2023-02-14T01:24:27.165Z,60
2023-02-14T01:26:57.372Z,60
2023-02-14T01:29:27.403Z,64
2023-02-14T01:34:38.636Z,60
2023-02-14T01:37:16.049Z,61
2023-02-14T01:39:46.232Z,60
2023-02-14T01:42:16.241Z,60
2023-02-14T01:44:46.333Z,59
2023-02-14T01:47:16.602Z,60
2023-02-14T01:49:46.568Z,56
2023-02-14T01:52:16.687Z,59
2023-02-14T01:54:46.658Z,63
2023-02-14T01:57:16.870Z,56
2023-02-14T01:59:46.996Z,56
2023-02-14T02:02:17.146Z,60
2023-02-14T02:04:50.675Z,58
2023-02-14T02:07:20.774Z,58
2023-02-14T02:09:50.462Z,54
2023-02-14T02:12:20.608Z,56
2023-02-14T02:14:50.872Z,48
2023-02-14T02:17:28.665Z,52
2023-02-14T02:19:58.533Z,50
2023-02-14T02:22:28.747Z,52
2023-02-14T02:24:59.450Z,52
2023-02-14T02:27:29.593Z,52
2023-02-14T02:29:59.723Z,52
2023-02-14T02:32:29.874Z,53
2023-02-14T02:34:59.936Z,48
2023-02-14T02:37:29.886Z,52
2023-02-14T02:40:00.135Z,48
2023-02-14T02:42:30.123Z,52
2023-02-14T02:45:00.285Z,53
2023-02-14T02:47:30.419Z,51
2023-02-14T02:50:00.593Z,49
2023-02-14T02:52:30.484Z,51
2023-02-14T02:55:00.511Z,49
2023-02-14T02:57:30.573Z,46
2023-02-14T03:00:00.613Z,50
2023-02-14T03:02:30.763Z,48
2023-02-14T03:05:00.848Z,44
2023-02-14T03:07:30.840Z,45
2023-02-14T03:10:00.884Z,47
2023-02-14T03:12:30.969Z,48
2023-02-14T03:15:01.022Z,44
2023-02-14T03:17:31.186Z,45
2023-02-14T03:22:44.299Z,46
2023-02-14T03:27:49.358Z,44
2023-02-14T03:30:19.515Z,44
2023-02-14T03:32:49.598Z,44
2023-02-14T03:35:19.114Z,44
2023-02-14T03:37:49.213Z,44
2023-02-14T03:40:19.337Z,44
2023-02-14T03:42:49.063Z,44
2023-02-14T03:45:19.095Z,41
2023-02-14T03:47:49.138Z,44
2023-02-14T03:50:19.211Z,40
2023-02-14T03:52:49.319Z,40
2023-02-14T03:55:19.409Z,40
2023-02-14T03:57:49.435Z,40
2023-02-14T04:00:19.411Z,40
2023-02-14T04:02:49.659Z,40
2023-02-14T04:05:19.628Z,40
2023-02-14T04:07:49.683Z,40
2023-02-14T04:10:19.775Z,40
2023-02-14T04:12:49.765Z,37
2023-02-14T04:15:19.772Z,40
2023-02-14T04:17:49.762Z,40
2023-02-14T04:20:19.762Z,40
2023-02-14T04:22:49.681Z,36
2023-02-14T04:25:19.618Z,40
2023-02-14T04:27:49.550Z,36
2023-02-14T04:30:27.271Z,36
2023-02-14T04:33:04.659Z,39
2023-02-14T04:35:34.970Z,40
2023-02-14T04:38:05.055Z,36
2023-02-14T04:40:34.969Z,39
2023-02-14T04:43:05.096Z,38
2023-02-14T04:45:35.054Z,39
2023-02-14T04:48:05.050Z,36
2023-02-14T04:50:35.310Z,34
2023-02-14T04:53:05.363Z,36
2023-02-14T04:55:35.245Z,36
2023-02-14T04:58:05.115Z,36
2023-02-14T05:00:35.155Z,37
2023-02-14T05:03:05.315Z,36
2023-02-14T05:05:35.484Z,36
2023-02-14T05:08:05.662Z,35
2023-02-14T05:10:35.773Z,36
2023-02-14T05:13:05.976Z,36
2023-02-14T05:15:38.359Z,36
2023-02-14T05:18:06.221Z,36
2023-02-14T05:20:36.505Z,37
2023-02-14T05:23:06.632Z,39
2023-02-14T05:25:36.582Z,36
2023-02-14T05:28:06.723Z,36
2023-02-14T05:30:36.864Z,36
2023-02-14T05:33:06.806Z,34
2023-02-14T05:35:36.904Z,36
2023-02-14T05:38:07.119Z,36
2023-02-14T05:40:37.221Z,36
2023-02-14T05:43:07.521Z,36
2023-02-14T05:45:37.649Z,36
2023-02-14T05:48:07.636Z,34
2023-02-14T05:50:37.556Z,36
2023-02-14T05:53:07.435Z,36
2023-02-14T05:55:37.384Z,36
2023-02-14T05:58:07.454Z,36
2023-02-14T06:00:39.350Z,36
2023-02-14T06:03:07.704Z,36
2023-02-14T06:05:37.844Z,36
2023-02-14T06:08:07.939Z,35
2023-02-14T06:10:38.009Z,32
2023-02-14T06:13:07.828Z,32
2023-02-14T06:15:37.967Z,38
2023-02-14T06:18:11.642Z,36
2023-02-14T06:20:41.597Z,36
2023-02-14T06:23:11.602Z,36
2023-02-14T06:25:41.271Z,36
2023-02-14T06:28:11.510Z,36
2023-02-14T06:30:41.556Z,34
2023-02-14T06:33:11.456Z,35
2023-02-14T06:35:41.285Z,36
2023-02-14T06:38:11.290Z,36
2023-02-14T06:40:41.432Z,32
2023-02-14T06:43:11.120Z,34
2023-02-14T06:45:41.258Z,36
2023-02-14T06:48:11.430Z,36
2023-02-14T06:50:41.688Z,32
2023-02-14T06:53:11.813Z,34
2023-02-14T06:55:43.751Z,31
2023-02-14T06:58:12.154Z,32
2023-02-14T07:03:12.014Z,33
2023-02-14T07:05:42.174Z,33
2023-02-14T07:08:19.656Z,36
2023-02-14T07:10:52.596Z,36
2023-02-14T07:13:22.557Z,36
2023-02-14T07:15:52.677Z,32
2023-02-14T07:18:22.681Z,32
2023-02-14T07:20:52.606Z,35
2023-02-14T07:23:22.706Z,36
2023-02-14T07:25:52.757Z,35
2023-02-14T07:28:22.857Z,32
2023-02-14T07:30:53.144Z,32
2023-02-14T07:33:23.098Z,36
2023-02-14T07:35:53.266Z,35
2023-02-14T07:38:23.475Z,36
2023-02-14T07:40:53.474Z,35
2023-02-14T07:43:23.718Z,32
2023-02-14T07:45:53.730Z,36
2023-02-14T07:48:23.618Z,36
2023-02-14T07:50:53.832Z,32
2023-02-14T07:53:23.728Z,36
2023-02-14T07:55:53.966Z,32
2023-02-14T07:58:23.958Z,32
2023-02-14T08:00:54.150Z,40
2023-02-14T08:03:24.074Z,32
2023-02-14T08:05:54.316Z,28
2023-02-14T08:08:24.334Z,32
2023-02-14T08:10:54.518Z,36
2023-02-14T08:13:24.506Z,34
2023-02-14T08:15:54.799Z,36
2023-02-14T08:18:24.733Z,32
2023-02-14T08:20:55.563Z,31
2023-02-14T08:23:25.558Z,36
2023-02-14T08:25:55.598Z,33
2023-02-14T08:28:25.593Z,32
2023-02-14T08:30:56.367Z,28
2023-02-14T08:33:26.444Z,32
2023-02-14T08:35:57.259Z,32
2023-02-14T08:38:27.151Z,32
2023-02-14T08:40:57.950Z,32
2023-02-14T08:43:27.819Z,32
2023-02-14T08:45:58.915Z,36
2023-02-14T08:48:29.167Z,32
2023-02-14T08:50:59.637Z,32
2023-02-14T08:53:29.507Z,30
2023-02-14T08:55:59.787Z,32
2023-02-14T08:58:30.499Z,32
2023-02-14T09:01:00.111Z,32
2023-02-14T09:03:32.469Z,32
2023-02-14T09:06:02.403Z,33
2023-02-14T09:08:32.532Z,32
2023-02-14T09:11:02.867Z,32
2023-02-14T09:13:32.422Z,32
2023-02-14T09:16:02.681Z,32
2023-02-14T09:18:32.785Z,30
2023-02-14T09:21:03.231Z,32
2023-02-14T09:23:32.967Z,32
2023-02-14T09:26:03.518Z,32
2023-02-14T09:28:33.658Z,32
2023-02-14T09:31:03.884Z,31
2023-02-14T09:33:33.930Z,32
2023-02-14T09:36:04.725Z,32
2023-02-14T09:38:34.762Z,32
2023-02-14T09:41:05.553Z,32
2023-02-14T09:43:35.799Z,32
2023-02-14T09:46:06.633Z,35
2023-02-14T09:48:36.682Z,33
2023-02-14T09:51:07.308Z,33
2023-02-14T09:53:37.508Z,36
2023-02-14T09:56:08.319Z,36
2023-02-14T09:58:40.372Z,33
2023-02-14T10:01:12.628Z,34
2023-02-14T10:03:45.856Z,36
2023-02-14T10:06:16.392Z,32
2023-02-14T10:08:46.452Z,35
2023-02-14T10:11:16.658Z,32
2023-02-14T10:13:46.740Z,35
2023-02-14T10:16:16.828Z,36
2023-02-14T10:18:46.986Z,36
2023-02-14T10:21:16.967Z,32
2023-02-14T10:23:47.465Z,36
2023-02-14T10:26:17.497Z,36
2023-02-14T10:28:47.525Z,32
2023-02-14T10:31:17.350Z,35
2023-02-14T10:33:47.353Z,36
2023-02-14T10:36:17.289Z,32
2023-02-14T10:38:47.590Z,32
2023-02-14T10:41:17.421Z,43
2023-02-14T10:43:47.367Z,36
2023-02-14T10:46:18.257Z,40
2023-02-14T10:48:47.042Z,32
2023-02-14T10:51:16.392Z,32
2023-02-14T10:53:46.399Z,32
2023-02-14T10:56:17.097Z,32
2023-02-14T10:58:47.152Z,32
2023-02-14T11:01:17.877Z,36
2023-02-14T11:03:48.533Z,35
2023-02-14T11:06:18.524Z,36
2023-02-14T11:08:49.143Z,35
2023-02-14T11:11:19.170Z,36
2023-02-14T11:13:49.917Z,32
2023-02-14T11:16:19.055Z,36
2023-02-14T11:18:49.478Z,35
2023-02-14T11:21:19.955Z,37
2023-02-14T11:23:50.119Z,36
2023-02-14T11:26:19.366Z,32
2023-02-14T11:28:48.724Z,32
2023-02-14T11:31:19.199Z,32
2023-02-14T11:33:49.143Z,36
2023-02-14T11:36:19.819Z,32
2023-02-14T11:38:49.851Z,32
2023-02-14T11:41:20.422Z,36
2023-02-14T11:43:50.034Z,36
2023-02-14T11:46:21.002Z,36
2023-02-14T11:48:51.124Z,32
2023-02-14T11:51:21.674Z,28
2023-02-14T11:53:51.618Z,32
2023-02-14T11:56:21.620Z,33
2023-02-14T11:58:51.740Z,35
2023-02-14T12:01:22.645Z,32
2023-02-14T12:03:52.473Z,32
2023-02-14T12:06:23.209Z,28
2023-02-14T12:08:53.052Z,32
2023-02-14T12:11:23.210Z,32
2023-02-14T12:13:53.887Z,36
2023-02-14T12:16:26.835Z,32
2023-02-14T12:18:56.886Z,32
2023-02-14T12:21:26.703Z,32
2023-02-14T12:23:56.756Z,28
2023-02-14T12:26:26.872Z,55
2023-02-14T12:28:56.908Z,32
2023-02-14T12:31:27.081Z,32
2023-02-14T12:33:58.249Z,32
2023-02-14T12:36:28.502Z,32
2023-02-14T12:38:59.278Z,32
2023-02-14T12:41:29.400Z,32
2023-02-14T12:44:00.378Z,32
2023-02-14T12:46:30.326Z,32
2023-02-14T12:49:01.125Z,36
2023-02-14T12:51:31.317Z,36
2023-02-14T12:54:01.548Z,36
2023-02-14T12:56:31.574Z,36
2023-02-14T12:59:01.288Z,34
2023-02-14T13:01:38.279Z,32
2023-02-14T13:04:03.391Z,34
2023-02-14T13:06:33.375Z,32
2023-02-14T13:09:04.084Z,35
2023-02-14T13:11:34.200Z,32
2023-02-14T13:14:05.009Z,32
2023-02-14T13:16:35.185Z,32
2023-02-14T13:19:05.013Z,35
2023-02-14T13:21:35.803Z,32
2023-02-14T13:24:05.784Z,32
2023-02-14T13:26:35.863Z,36
2023-02-14T13:29:06.152Z,36
2023-02-14T13:31:36.371Z,56
2023-02-14T13:34:06.292Z,44
2023-02-14T13:36:36.914Z,36
2023-02-14T13:39:06.986Z,36
2023-02-14T13:41:36.990Z,36
2023-02-14T13:44:07.039Z,36
2023-02-14T13:46:37.234Z,35
2023-02-14T13:49:07.217Z,32
2023-02-14T13:51:37.178Z,36
2023-02-14T13:54:07.217Z,36
2023-02-14T13:56:37.911Z,36
2023-02-14T13:59:07.860Z,32
2023-02-14T14:01:38.678Z,35
2023-02-14T14:04:08.903Z,32
2023-02-14T14:06:39.796Z,36
2023-02-14T14:09:09.698Z,38
2023-02-14T14:11:39.871Z,37
2023-02-14T14:14:10.559Z,35
2023-02-14T14:16:40.173Z,32
2023-02-14T14:19:10.746Z,36
2023-02-14T14:21:40.994Z,36
2023-02-14T14:24:11.564Z,39
2023-02-14T14:26:41.628Z,36
2023-02-14T14:29:12.097Z,36
2023-02-14T14:31:42.298Z,35
2023-02-14T14:34:12.144Z,45
2023-02-14T14:36:42.117Z,40
2023-02-14T14:39:11.952Z,36
2023-02-14T14:41:41.936Z,40
2023-02-14T14:44:11.776Z,39
2023-02-14T14:46:41.519Z,39
2023-02-14T14:49:11.689Z,36
2023-02-14T14:51:42.467Z,36
2023-02-14T14:54:12.515Z,40
2023-02-14T14:56:42.702Z,33
2023-02-14T14:59:12.917Z,36
2023-02-14T15:01:42.825Z,64
2023-02-14T15:04:13.572Z,36
2023-02-14T15:06:44.279Z,43
2023-02-14T15:09:14.275Z,37
2023-02-14T15:11:44.878Z,36
2023-02-14T15:14:14.748Z,40
2023-02-14T15:16:45.567Z,36
2023-02-14T15:19:16.288Z,40
2023-02-14T15:21:46.348Z,43
2023-02-14T15:24:16.703Z,40
2023-02-14T15:26:47.390Z,36
2023-02-14T15:29:17.558Z,40
2023-02-14T15:31:48.165Z,36
2023-02-14T15:34:18.045Z,36
2023-02-14T15:36:48.147Z,36
2023-02-14T15:39:18.320Z,53
2023-02-14T15:41:49.213Z,41
2023-02-14T15:44:19.186Z,40
2023-02-14T15:46:49.259Z,43
2023-02-14T15:49:19.518Z,37
2023-02-14T15:51:50.046Z,40
2023-02-14T15:54:20.749Z,46
2023-02-14T15:56:50.944Z,44
2023-02-14T15:59:20.884Z,40
2023-02-14T16:01:51.066Z,40
2023-02-14T16:04:21.811Z,40
2023-02-14T16:06:51.979Z,41
2023-02-14T16:09:22.610Z,40
2023-02-14T16:11:52.684Z,40
2023-02-14T16:14:22.665Z,40
2023-02-14T16:16:52.622Z,40
2023-02-14T16:19:23.358Z,40
2023-02-14T16:21:53.367Z,40
2023-02-14T16:24:24.095Z,39
2023-02-14T16:26:54.116Z,36
2023-02-14T16:29:23.861Z,36
2023-02-14T16:32:14.406Z,39
2023-02-14T16:34:24.201Z,40
2023-02-14T16:36:53.901Z,40
2023-02-14T16:39:23.951Z,40
2023-02-14T16:41:53.970Z,36
2023-02-14T16:44:24.458Z,40
2023-02-14T16:46:54.543Z,40
2023-02-14T16:49:25.226Z,40
2023-02-14T16:51:55.198Z,42
2023-02-14T16:54:25.048Z,42
2023-02-14T16:56:55.092Z,40
2023-02-14T16:59:25.320Z,40
2023-02-14T17:01:55.293Z,37
2023-02-14T17:04:26.057Z,40
2023-02-14T17:06:55.986Z,40
2023-02-14T17:09:25.974Z,37
2023-02-14T17:11:55.531Z,41
2023-02-14T17:17:04.103Z,40
2023-02-14T17:19:34.153Z,40
2023-02-14T17:22:03.971Z,44
2023-02-14T17:24:34.670Z,40
2023-02-14T17:27:06.952Z,40
2023-02-14T17:29:40.450Z,40
2023-02-14T17:32:10.582Z,42
2023-02-14T17:34:41.468Z,40
2023-02-14T17:37:17.781Z,40
2023-02-14T17:39:47.845Z,44
2023-02-14T17:42:20.865Z,44
2023-02-14T17:44:54.555Z,43
2023-02-14T17:47:24.042Z,44
2023-02-14T17:49:53.920Z,48
2023-02-14T17:52:24.404Z,51
2023-02-14T17:54:57.226Z,56
2023-02-14T17:57:27.539Z,51
2023-02-14T17:59:57.680Z,52
2023-02-14T18:02:29.605Z,49
2023-02-14T18:04:59.544Z,56
2023-02-14T18:07:29.607Z,46
2023-02-14T18:10:03.990Z,52
2023-02-14T18:12:38.700Z,55
2023-02-14T18:15:19.860Z,52
2023-02-14T18:17:50.309Z,50
2023-02-14T18:20:19.856Z,48
2023-02-14T18:22:49.985Z,44
2023-02-14T18:25:19.808Z,48
2023-02-14T18:27:51.406Z,48
2023-02-14T18:30:23.291Z,47
2023-02-14T18:32:55.901Z,46
2023-02-14T18:35:26.210Z,44
2023-02-14T18:38:01.914Z,48
2023-02-14T18:40:31.423Z,45
2023-02-14T18:43:01.702Z,55
2023-02-14T18:45:31.709Z,56
2023-02-14T18:48:01.795Z,55
2023-02-14T18:50:31.599Z,52
2023-02-14T18:53:05.289Z,55
2023-02-14T18:55:35.219Z,54
2023-02-14T18:58:07.762Z,63
2023-02-14T19:00:35.980Z,60
2023-02-14T19:03:13.145Z,69
2023-02-14T19:05:42.998Z,60
2023-02-14T19:08:13.272Z,64
2023-02-14T19:10:42.823Z,59
2023-02-14T19:13:12.769Z,68
2023-02-14T19:15:42.593Z,63
2023-02-14T19:18:13.874Z,64
2023-02-14T19:20:45.684Z,72
2023-02-14T19:23:19.976Z,76
2023-02-14T19:25:49.556Z,77
2023-02-14T19:28:19.383Z,83
2023-02-14T19:30:50.971Z,94
2023-02-14T19:33:26.880Z,96
2023-02-14T19:35:56.901Z,96
2023-02-14T19:41:43.983Z,92
2023-02-14T19:44:14.306Z,91
2023-02-14T19:46:43.942Z,88
2023-02-14T19:49:13.834Z,88
2023-02-14T19:51:43.596Z,84
2023-02-14T19:54:13.551Z,82
2023-02-14T19:56:43.492Z,88
2023-02-14T19:59:14.141Z,88
2023-02-14T20:01:44.208Z,88
2023-02-14T20:04:13.805Z,90
2023-02-14T20:06:45.349Z,88
2023-02-14T20:09:15.993Z,92
2023-02-14T20:11:46.721Z,96
2023-02-14T20:14:16.455Z,108
2023-02-14T20:16:47.058Z,108
2023-02-14T20:19:16.836Z,114
2023-02-14T20:21:47.174Z,111
2023-02-14T20:24:23.294Z,103
2023-02-14T20:26:53.238Z,104
2023-02-14T20:29:23.267Z,100
2023-02-14T20:31:54.046Z,99
2023-02-14T20:34:23.926Z,99
2023-02-14T20:36:54.807Z,100
2023-02-14T20:39:24.645Z,98
2023-02-14T20:41:54.687Z,101
2023-02-14T20:44:24.695Z,94
2023-02-14T20:46:54.588Z,92
2023-02-14T20:49:24.490Z,91
2023-02-14T20:51:55.146Z,96
2023-02-14T20:54:25.306Z,98
2023-02-14T20:56:55.144Z,104
2023-02-14T20:59:24.759Z,104
2023-02-14T21:01:54.976Z,106
2023-02-14T21:04:25.005Z,108
2023-02-14T21:06:54.634Z,104
2023-02-14T21:09:24.669Z,102
2023-02-14T21:11:54.651Z,107
2023-02-14T21:14:24.598Z,102
2023-02-14T21:16:54.410Z,111
2023-02-14T21:19:26.677Z,105
2023-02-14T21:21:55.789Z,112
2023-02-14T21:24:26.529Z,107
2023-02-14T21:26:56.361Z,98
2023-02-14T21:29:27.766Z,106
2023-02-14T21:32:02.412Z,100
2023-02-14T21:34:29.624Z,105
2023-02-14T21:36:58.888Z,108
2023-02-14T21:39:28.524Z,104
2023-02-14T21:45:03.534Z,111
2023-02-14T21:47:33.981Z,120
2023-02-14T21:50:15.402Z,124
2023-02-14T21:52:45.281Z,136
2023-02-14T21:55:14.925Z,142
2023-02-14T21:57:44.781Z,140
2023-02-14T22:00:14.686Z,136
2023-02-14T22:02:48.172Z,142
2023-02-14T22:05:17.957Z,148
2023-02-14T22:07:47.796Z,141
2023-02-14T22:10:18.414Z,144
2023-02-14T22:12:48.451Z,141
2023-02-14T22:15:18.814Z,132
2023-02-14T22:17:48.927Z,140
2023-02-14T22:20:19.165Z,139
2023-02-14T22:22:49.194Z,132
2023-02-14T22:25:19.836Z,131
2023-02-14T22:27:49.675Z,132
2023-02-14T22:30:23.049Z,128
2023-02-14T22:32:52.982Z,130
2023-02-14T22:35:23.567Z,132
2023-02-14T22:37:56.999Z,127
2023-02-14T22:40:26.921Z,137
2023-02-14T22:42:56.613Z,128
2023-02-14T22:45:27.332Z,139
2023-02-14T22:47:57.518Z,113
2023-02-14T22:50:28.290Z,117
2023-02-14T22:52:58.096Z,120
2023-02-14T22:55:28.000Z,116
2023-02-14T22:57:57.931Z,109
2023-02-14T23:00:28.742Z,116
2023-02-14T23:02:58.951Z,115
2023-02-14T23:05:29.056Z,118
2023-02-14T23:07:59.734Z,112
2023-02-14T23:10:29.707Z,110
2023-02-14T23:13:00.371Z,112
2023-02-14T23:15:30.474Z,119
2023-02-14T23:18:00.601Z,121
2023-02-14T23:20:30.615Z,125
2023-02-14T23:23:01.192Z,124
2023-02-14T23:25:31.753Z,132
2023-02-14T23:28:01.785Z,120
2023-02-14T23:30:43.488Z,120
2023-02-14T23:33:13.699Z,115
2023-02-14T23:35:46.115Z,105
2023-02-14T23:38:16.679Z,99
2023-02-14T23:40:46.689Z,100
2023-02-14T23:43:17.028Z,104
2023-02-14T23:45:47.170Z,106
2023-02-14T23:48:17.066Z,95
2023-02-14T23:50:47.076Z,93
2023-02-14T23:53:16.959Z,96
2023-02-14T23:55:46.980Z,95
2023-02-14T23:58:17.133Z,95
